createdAt,value
2022-09-21T00:01:31.574Z,6.68
2022-09-21T00:04:04.285Z,4.43
2022-09-21T00:06:35.154Z,6.28
2022-09-21T00:09:08.275Z,4.60
2022-09-21T00:11:37.175Z,4.35
2022-09-21T00:14:13.225Z,5.53
2022-09-21T00:16:43.557Z,5.47
2022-09-21T00:19:12.026Z,5.20
2022-09-21T00:21:39.927Z,6.40
2022-09-21T00:24:08.315Z,8.15
2022-09-21T00:26:35.895Z,4.22
2022-09-21T00:29:05.276Z,5.70
2022-09-21T00:31:33.612Z,4.85
2022-09-21T00:34:01.325Z,4.15
2022-09-21T00:36:29.159Z,13.75
2022-09-21T00:39:01.808Z,5.85
2022-09-21T00:41:33.217Z,7.45
2022-09-21T00:44:44.897Z,7.22
2022-09-21T00:47:39.145Z,4.75
2022-09-21T00:50:18.035Z,6.30
2022-09-21T00:52:57.884Z,9.38
2022-09-21T00:55:44.821Z,7.43
2022-09-21T00:58:26.284Z,4.30
2022-09-21T01:00:54.410Z,5.32
2022-09-21T01:03:21.509Z,5.63
2022-09-21T01:05:48.863Z,5.10
2022-09-21T01:08:18.833Z,6.03
2022-09-21T01:11:34.464Z,5.65
2022-09-21T01:14:41.384Z,6.03
2022-09-21T01:17:22.884Z,6.80
2022-09-21T01:20:23.853Z,4.90
2022-09-21T01:23:39.982Z,7.00
2022-09-21T01:27:04.008Z,8.35
2022-09-21T01:30:11.158Z,6.13
2022-09-21T01:33:17.815Z,7.50
2022-09-21T01:35:58.025Z,5.70
2022-09-21T01:38:44.711Z,8.50
2022-09-21T01:41:21.604Z,7.63
2022-09-21T01:44:03.596Z,5.68
2022-09-21T01:46:34.064Z,7.45
2022-09-21T01:49:15.299Z,7.40
2022-09-21T01:51:58.262Z,7.65
2022-09-21T01:54:43.244Z,6.53
2022-09-21T01:57:28.411Z,6.25
2022-09-21T02:00:01.429Z,7.30
2022-09-21T02:02:58.654Z,5.82
2022-09-21T02:05:32.918Z,5.57
2022-09-21T02:08:01.471Z,5.60
2022-09-21T02:10:55.983Z,7.47
2022-09-21T02:13:32.595Z,5.10
2022-09-21T02:16:08.513Z,6.55
2022-09-21T02:19:15.821Z,5.78
2022-09-21T02:22:25.124Z,6.18
2022-09-21T02:25:10.855Z,5.38
2022-09-21T02:27:55.939Z,7.97
2022-09-21T02:30:27.530Z,5.18
2022-09-21T02:33:41.097Z,4.78
2022-09-21T02:36:57.090Z,7.35
2022-09-21T02:40:01.181Z,4.82
2022-09-21T02:42:39.225Z,5.88
2022-09-21T02:45:27.203Z,7.25
2022-09-21T02:48:05.428Z,5.50
2022-09-21T02:50:55.095Z,4.82
2022-09-21T02:53:37.096Z,4.82
2022-09-21T02:56:11.534Z,6.93
2022-09-21T02:58:50.261Z,4.28
2022-09-21T03:03:49.170Z,4.47
2022-09-21T03:06:16.198Z,7.53
2022-09-21T03:08:44.264Z,4.85
2022-09-21T03:13:38.832Z,4.20
2022-09-21T03:16:07.715Z,3.88
2022-09-21T03:18:35.356Z,4.57
2022-09-21T03:21:03.419Z,4.60
2022-09-21T03:25:58.119Z,4.57
2022-09-21T03:28:25.578Z,4.30
2022-09-21T03:30:53.295Z,5.55
2022-09-21T03:33:21.853Z,4.10
2022-09-21T03:35:49.849Z,4.85
2022-09-21T03:40:49.915Z,5.55
2022-09-21T03:43:18.840Z,6.07
2022-09-21T03:45:46.175Z,5.78
2022-09-21T03:48:14.060Z,7.80
2022-09-21T03:50:41.707Z,5.50
2022-09-21T03:53:10.184Z,6.80
2022-09-21T03:55:37.512Z,10.00
2022-09-21T03:58:04.870Z,4.80
2022-09-21T04:00:32.620Z,9.13
2022-09-21T04:03:00.289Z,8.65
2022-09-21T04:05:27.953Z,9.63
2022-09-21T04:07:57.050Z,4.32
2022-09-21T04:10:32.898Z,6.28
2022-09-21T04:13:04.403Z,7.97
2022-09-21T04:15:31.993Z,5.80
2022-09-21T04:17:59.409Z,4.35
2022-09-21T04:20:26.587Z,7.75
2022-09-21T04:22:53.559Z,4.83
2022-09-21T04:25:20.747Z,6.18
2022-09-21T04:27:48.088Z,4.82
2022-09-21T04:30:16.968Z,4.40
2022-09-21T04:32:44.927Z,3.92
2022-09-21T04:35:11.987Z,3.78
2022-09-21T04:37:38.975Z,5.70
2022-09-21T04:40:08.296Z,4.93
2022-09-21T04:42:35.536Z,3.92
2022-09-21T04:45:02.709Z,3.60
2022-09-21T04:47:31.528Z,4.23
2022-09-21T04:49:58.555Z,3.80
2022-09-21T04:52:25.698Z,5.40
2022-09-21T04:54:53.301Z,5.35
2022-09-21T04:57:20.369Z,5.93
2022-09-21T04:59:47.391Z,4.43
2022-09-21T05:02:14.545Z,7.55
2022-09-21T05:04:41.541Z,7.07
2022-09-21T05:07:08.515Z,3.80
2022-09-21T05:09:54.559Z,3.67
2022-09-21T05:12:22.182Z,4.40
2022-09-21T05:14:52.135Z,5.53
2022-09-21T05:17:22.756Z,4.72
2022-09-21T05:19:51.743Z,4.55
2022-09-21T05:22:18.838Z,5.45
2022-09-21T05:24:46.416Z,7.73
2022-09-21T05:27:14.053Z,6.57
2022-09-21T05:29:42.628Z,6.75
2022-09-21T05:33:01.530Z,8.88
2022-09-21T05:36:05.118Z,5.80
2022-09-21T05:38:33.260Z,7.95
2022-09-21T05:43:29.301Z,6.60
2022-09-21T05:46:35.805Z,8.00
2022-09-21T05:49:46.597Z,5.65
2022-09-21T05:56:23.900Z,5.32
2022-09-21T05:59:53.701Z,7.20
2022-09-21T06:02:53.307Z,9.23
2022-09-21T06:05:21.317Z,7.78
2022-09-21T06:07:48.314Z,7.40
2022-09-21T06:10:16.331Z,7.88
2022-09-21T06:15:17.144Z,9.15
2022-09-21T06:17:44.308Z,8.05
2022-09-21T06:20:11.314Z,8.73
2022-09-21T06:22:38.277Z,10.27
2022-09-21T06:25:06.164Z,8.93
2022-09-21T06:27:33.143Z,10.48
2022-09-21T06:30:00.192Z,10.95
2022-09-21T06:32:28.711Z,11.73
2022-09-21T06:34:55.633Z,9.07
2022-09-21T06:37:22.650Z,10.60
2022-09-21T06:39:49.560Z,11.98
2022-09-21T06:42:17.282Z,9.60
2022-09-21T06:44:44.358Z,10.98
2022-09-21T06:47:11.266Z,10.93
2022-09-21T06:49:42.363Z,11.63
2022-09-21T06:52:09.742Z,10.80
2022-09-21T06:54:36.900Z,12.60
2022-09-21T06:57:04.032Z,9.17
2022-09-21T06:59:31.112Z,12.20
2022-09-21T07:01:58.676Z,13.82
2022-09-21T07:04:26.136Z,12.02
2022-09-21T07:06:53.247Z,8.90
2022-09-21T07:12:10.987Z,11.00
2022-09-21T07:14:38.355Z,9.23
2022-09-21T07:17:05.711Z,12.48
2022-09-21T07:19:32.635Z,11.50
2022-09-21T07:21:59.667Z,10.32
2022-09-21T07:24:26.584Z,11.07
2022-09-21T07:26:53.517Z,10.18
2022-09-21T07:29:20.550Z,11.15
2022-09-21T07:31:48.502Z,12.82
2022-09-21T07:36:43.107Z,10.98
2022-09-21T07:39:11.282Z,12.10
2022-09-21T07:41:38.975Z,17.23
2022-09-21T07:44:06.095Z,11.80
2022-09-21T07:46:33.166Z,10.63
2022-09-21T07:49:00.118Z,10.43
2022-09-21T07:51:27.106Z,9.85
2022-09-21T07:53:57.251Z,9.30
2022-09-21T07:56:25.489Z,10.02
2022-09-21T07:59:07.665Z,7.13
2022-09-21T08:01:42.227Z,8.30
2022-09-21T08:04:11.480Z,11.18
2022-09-21T08:06:42.431Z,8.60
2022-09-21T08:09:09.461Z,7.35
2022-09-21T08:11:37.831Z,10.63
2022-09-21T08:14:05.578Z,7.35
2022-09-21T08:16:34.076Z,9.48
2022-09-21T08:19:02.274Z,7.55
2022-09-21T08:23:56.123Z,7.03
2022-09-21T08:26:23.960Z,8.95
2022-09-21T08:28:53.900Z,7.53
2022-09-21T08:31:24.551Z,7.68
2022-09-21T08:33:55.204Z,10.48
2022-09-21T08:36:22.147Z,6.13
2022-09-21T08:38:49.230Z,7.65
2022-09-21T08:41:48.053Z,7.27
2022-09-21T08:44:54.309Z,6.82
2022-09-21T08:47:43.858Z,9.73
2022-09-21T08:50:46.705Z,7.78
2022-09-21T08:53:45.790Z,8.75
2022-09-21T08:56:16.229Z,5.73
2022-09-21T08:58:43.962Z,9.35
2022-09-21T09:01:31.985Z,9.23
2022-09-21T09:05:01.589Z,6.03
2022-09-21T09:08:21.817Z,9.38
2022-09-21T09:11:46.789Z,6.80
2022-09-21T09:15:33.474Z,5.63
2022-09-21T09:18:43.419Z,6.68
2022-09-21T09:21:31.906Z,4.97
2022-09-21T09:24:31.829Z,6.45
2022-09-21T09:27:19.314Z,6.82
2022-09-21T09:30:05.071Z,6.88
2022-09-21T09:32:53.369Z,5.40
2022-09-21T09:35:51.721Z,5.28
2022-09-21T09:38:56.316Z,3.95
2022-09-21T09:42:15.832Z,7.55
2022-09-21T09:45:16.302Z,4.95
2022-09-21T09:48:53.309Z,5.93
2022-09-21T09:51:21.253Z,3.53
2022-09-21T09:53:48.344Z,4.75
2022-09-21T09:56:15.459Z,4.15
2022-09-21T09:59:08.208Z,4.38
2022-09-21T10:01:58.115Z,3.72
2022-09-21T10:04:25.416Z,2.70
2022-09-21T10:06:52.414Z,4.50
2022-09-21T10:09:35.637Z,3.28
2022-09-21T10:12:25.542Z,2.00
2022-09-21T10:15:00.868Z,3.33
2022-09-21T10:17:28.354Z,2.78
2022-09-21T10:20:06.508Z,3.63
2022-09-21T10:22:33.570Z,1.98
2022-09-21T10:25:05.282Z,4.93
2022-09-21T10:27:45.334Z,3.25
2022-09-21T10:30:38.861Z,1.67
2022-09-21T10:33:22.185Z,1.77
2022-09-21T10:35:53.115Z,1.23
2022-09-21T10:38:30.703Z,2.03
2022-09-21T10:40:58.166Z,1.90
2022-09-21T10:43:45.954Z,1.27
2022-09-21T10:46:14.643Z,1.67
2022-09-21T10:48:46.894Z,1.50
2022-09-21T10:51:31.927Z,2.00
2022-09-21T10:53:59.107Z,1.55
2022-09-21T10:56:26.642Z,1.70
2022-09-21T10:59:25.568Z,1.67
2022-09-21T11:01:58.669Z,1.10
2022-09-21T11:04:48.599Z,3.50
2022-09-21T11:07:27.375Z,1.38
2022-09-21T11:10:44.977Z,4.75
2022-09-21T11:13:35.371Z,1.20
2022-09-21T11:16:35.125Z,1.65
2022-09-21T11:19:42.534Z,1.88
2022-09-21T11:22:43.250Z,1.30
2022-09-21T11:25:24.923Z,1.70
2022-09-21T11:28:26.045Z,2.17
2022-09-21T11:32:06.067Z,1.52
2022-09-21T11:35:15.347Z,1.95
2022-09-21T11:38:39.872Z,1.98
2022-09-21T11:41:39.019Z,1.40
2022-09-21T11:44:27.846Z,2.97
2022-09-21T11:47:46.901Z,1.33
2022-09-21T11:50:46.461Z,3.15
2022-09-21T11:54:37.801Z,2.72
2022-09-21T11:57:23.163Z,1.48
2022-09-21T12:00:15.792Z,1.98
2022-09-21T12:03:55.017Z,1.15
2022-09-21T12:06:56.141Z,1.90
2022-09-21T12:10:08.938Z,1.67
2022-09-21T12:13:04.560Z,1.20
2022-09-21T12:16:03.035Z,5.75
2022-09-21T12:19:00.846Z,1.33
2022-09-21T12:22:09.707Z,1.23
2022-09-21T12:24:59.239Z,0.98
2022-09-21T12:27:36.593Z,0.75
2022-09-21T12:30:19.528Z,0.82
2022-09-21T12:32:53.511Z,3.90
2022-09-21T12:36:02.337Z,2.25
2022-09-21T12:38:59.584Z,0.82
2022-09-21T12:41:52.338Z,5.55
2022-09-21T12:44:53.490Z,1.25
2022-09-21T12:48:29.434Z,2.60
2022-09-21T12:51:29.700Z,1.23
2022-09-21T12:54:12.362Z,1.92
2022-09-21T12:57:42.709Z,4.68
2022-09-21T13:00:19.801Z,2.22
2022-09-21T13:03:40.541Z,1.92
2022-09-21T13:06:57.723Z,1.55
2022-09-21T13:09:31.140Z,1.95
2022-09-21T13:12:17.421Z,2.03
2022-09-21T13:15:03.205Z,1.20
2022-09-21T13:17:34.004Z,1.27
2022-09-21T13:20:22.675Z,1.20
2022-09-21T13:23:01.753Z,1.17
2022-09-21T13:25:37.914Z,2.80
2022-09-21T13:28:13.666Z,1.45
2022-09-21T13:34:32.557Z,1.70
2022-09-21T13:37:20.653Z,2.25
2022-09-21T13:40:03.271Z,1.20
2022-09-21T13:42:33.271Z,1.50
2022-09-21T13:45:24.744Z,1.17
2022-09-21T13:48:00.359Z,1.83
2022-09-21T13:50:43.318Z,2.25
2022-09-21T13:53:40.264Z,2.28
2022-09-21T13:56:20.991Z,1.20
2022-09-21T13:58:57.383Z,1.52
2022-09-21T14:01:46.633Z,1.30
2022-09-21T14:04:37.739Z,2.72
2022-09-21T14:07:08.688Z,1.10
2022-09-21T14:10:00.948Z,3.50
2022-09-21T14:12:45.526Z,1.55
2022-09-21T14:15:19.576Z,2.38
2022-09-21T14:18:38.138Z,1.10
2022-09-21T14:21:19.030Z,1.25
2022-09-21T14:24:07.931Z,1.40
2022-09-21T14:26:41.278Z,1.20
2022-09-21T14:29:53.208Z,2.35
2022-09-21T14:32:33.675Z,1.13
2022-09-21T14:35:19.181Z,2.58
2022-09-21T14:37:57.923Z,1.30
2022-09-21T14:40:39.217Z,1.58
2022-09-21T14:43:22.042Z,1.20
2022-09-21T14:46:40.623Z,1.85
2022-09-21T14:49:34.960Z,1.63
2022-09-21T14:53:11.436Z,1.88
2022-09-21T14:56:58.302Z,3.40
2022-09-21T15:00:24.608Z,1.27
2022-09-21T15:03:30.782Z,0.90
2022-09-21T15:06:38.256Z,2.33
2022-09-21T15:10:24.205Z,1.50
2022-09-21T15:13:10.523Z,1.15
2022-09-21T15:16:26.271Z,1.10
2022-09-21T15:19:24.819Z,0.93
2022-09-21T15:22:17.312Z,1.17
2022-09-21T15:24:56.860Z,1.48
2022-09-21T15:27:33.509Z,0.63
2022-09-21T15:30:06.422Z,1.25
2022-09-21T15:32:46.603Z,3.70
2022-09-21T15:35:27.843Z,0.80
2022-09-21T15:38:00.886Z,1.27
2022-09-21T15:40:46.211Z,2.65
2022-09-21T15:43:15.897Z,1.13
2022-09-21T15:46:00.917Z,2.25
2022-09-21T15:48:38.381Z,2.70
2022-09-21T15:51:31.885Z,1.58
2022-09-21T15:54:21.308Z,1.55
2022-09-21T15:56:48.642Z,0.80
2022-09-21T15:59:22.310Z,1.10
2022-09-21T16:01:55.872Z,1.08
2022-09-21T16:04:28.046Z,1.23
2022-09-21T16:07:34.416Z,3.08
2022-09-21T16:10:24.172Z,1.23
2022-09-21T16:12:51.298Z,1.52
2022-09-21T16:15:22.429Z,1.88
2022-09-21T16:18:06.944Z,1.35
2022-09-21T16:20:48.041Z,3.72
2022-09-21T16:23:24.365Z,2.17
2022-09-21T16:26:01.720Z,6.25
2022-09-21T16:28:42.172Z,2.88
2022-09-21T16:31:36.341Z,1.13
2022-09-21T16:34:36.999Z,3.85
2022-09-21T16:37:24.339Z,1.40
2022-09-21T16:39:54.401Z,1.63
2022-09-21T16:42:27.978Z,4.22
2022-09-21T16:44:55.905Z,1.58
2022-09-21T16:50:01.593Z,2.42
2022-09-21T16:52:30.775Z,2.60
2022-09-21T16:54:58.917Z,3.90
2022-09-21T16:57:26.661Z,3.63
2022-09-21T16:59:53.692Z,2.15
2022-09-21T17:02:21.056Z,3.92
2022-09-21T17:04:48.247Z,1.40
2022-09-21T17:07:20.126Z,1.52
2022-09-21T17:09:48.292Z,1.25
2022-09-21T17:12:19.068Z,7.75
2022-09-21T17:14:47.346Z,2.30
2022-09-21T17:17:24.391Z,5.53
2022-09-21T17:19:54.254Z,2.45
2022-09-21T17:22:21.988Z,2.65
2022-09-21T17:24:52.849Z,2.85
2022-09-21T17:27:26.795Z,2.75
2022-09-21T17:29:55.361Z,5.90
2022-09-21T17:32:24.791Z,5.28
2022-09-21T17:35:41.861Z,3.42
2022-09-21T17:38:12.597Z,4.80
2022-09-21T17:40:43.087Z,3.47
2022-09-21T17:43:50.194Z,3.65
2022-09-21T17:46:50.514Z,3.40
2022-09-21T17:49:18.867Z,2.90
2022-09-21T17:52:04.881Z,2.40
2022-09-21T17:54:32.220Z,2.45
2022-09-21T17:57:49.135Z,1.77
2022-09-21T18:00:28.743Z,3.97
2022-09-21T18:02:56.177Z,2.50
2022-09-21T18:05:30.365Z,3.92
2022-09-21T18:07:58.409Z,3.03
2022-09-21T18:13:24.107Z,6.18
2022-09-21T18:16:46.227Z,3.35
2022-09-21T18:20:03.219Z,5.05
2022-09-21T18:23:14.181Z,3.17
2022-09-21T18:25:49.204Z,2.45
2022-09-21T18:28:42.251Z,4.88
2022-09-21T18:31:43.275Z,6.03
2022-09-21T18:34:41.735Z,2.15
2022-09-21T18:37:26.569Z,2.85
2022-09-21T18:40:35.713Z,3.67
2022-09-21T18:43:55.395Z,3.03
2022-09-21T18:46:50.838Z,2.88
2022-09-21T18:50:15.174Z,4.82
2022-09-21T18:53:11.674Z,2.58
2022-09-21T18:55:39.242Z,3.40
2022-09-21T18:58:06.634Z,3.90
2022-09-21T19:00:35.440Z,4.60
2022-09-21T19:03:17.698Z,6.20
2022-09-21T19:06:45.831Z,2.63
2022-09-21T19:09:41.132Z,2.53
2022-09-21T19:13:00.210Z,4.30
2022-09-21T19:16:00.939Z,3.58
2022-09-21T19:19:07.350Z,2.15
2022-09-21T19:22:10.464Z,5.72
2022-09-21T19:24:58.738Z,2.45
2022-09-21T19:27:39.821Z,5.15
2022-09-21T19:30:14.156Z,2.70
2022-09-21T19:32:58.391Z,3.00
2022-09-21T19:35:28.837Z,4.25
2022-09-21T19:38:04.021Z,3.83
2022-09-21T19:40:37.253Z,3.47
2022-09-21T19:43:35.553Z,3.58
2022-09-21T19:46:50.330Z,3.40
2022-09-21T19:49:20.935Z,3.80
2022-09-21T19:51:58.490Z,4.35
2022-09-21T19:54:44.735Z,4.75
2022-09-21T19:57:42.365Z,7.78
2022-09-21T20:00:16.760Z,4.78
2022-09-21T20:03:26.029Z,4.30
2022-09-21T20:06:20.359Z,8.10
2022-09-21T20:09:29.157Z,4.03
2022-09-21T20:12:11.017Z,3.22
2022-09-21T20:15:22.578Z,4.65
2022-09-21T20:18:03.389Z,5.05
2022-09-21T20:20:31.176Z,4.32
2022-09-21T20:23:00.313Z,5.55
2022-09-21T20:25:51.574Z,6.45
2022-09-21T20:28:19.093Z,4.55
2022-09-21T20:30:46.640Z,4.18
2022-09-21T20:33:22.704Z,3.95
2022-09-21T20:35:55.390Z,6.13
2022-09-21T20:38:23.698Z,4.55
2022-09-21T20:40:51.689Z,4.53
2022-09-21T20:45:49.440Z,7.07
2022-09-21T20:48:17.274Z,3.83
2022-09-21T20:50:50.685Z,4.35
2022-09-21T20:53:19.364Z,4.05
2022-09-21T20:56:03.753Z,3.90
2022-09-21T20:58:31.016Z,5.05
2022-09-21T21:01:08.817Z,7.00
2022-09-21T21:03:36.551Z,7.70
2022-09-21T21:06:20.710Z,8.35
2022-09-21T21:08:48.018Z,7.18
2022-09-21T21:11:14.932Z,8.90
2022-09-21T21:13:42.607Z,9.20
2022-09-21T21:16:12.363Z,6.85
2022-09-21T21:18:43.458Z,10.15
2022-09-21T21:21:10.480Z,9.27
2022-09-21T21:23:56.236Z,8.13
2022-09-21T21:26:38.268Z,12.55
2022-09-21T21:29:13.690Z,9.20
2022-09-21T21:31:41.292Z,7.30
2022-09-21T21:34:08.431Z,12.07
2022-09-21T21:36:35.434Z,12.83
2022-09-21T21:39:02.413Z,10.68
2022-09-21T21:41:31.229Z,14.15
2022-09-21T21:43:58.787Z,11.57
2022-09-21T21:46:29.848Z,10.57
2022-09-21T21:48:56.886Z,11.20
2022-09-21T21:51:23.833Z,11.43
2022-09-21T21:53:51.232Z,13.05
2022-09-21T21:56:20.315Z,9.20
2022-09-21T21:58:47.296Z,9.98
2022-09-21T22:01:20.947Z,10.65
2022-09-21T22:03:58.181Z,13.13
2022-09-21T22:06:28.021Z,10.98
2022-09-21T22:08:57.497Z,13.82
2022-09-21T22:11:27.568Z,16.90
2022-09-21T22:13:55.742Z,15.90
2022-09-21T22:16:25.946Z,15.75
2022-09-21T22:18:53.584Z,15.27
2022-09-21T22:21:31.782Z,13.23
2022-09-21T22:24:04.346Z,11.70
2022-09-21T22:26:38.616Z,11.05
2022-09-21T22:29:09.593Z,11.10
2022-09-21T22:31:42.862Z,9.98
2022-09-21T22:34:12.591Z,12.07
2022-09-21T22:36:40.818Z,8.57
2022-09-21T22:39:09.316Z,9.00
2022-09-21T22:41:41.827Z,8.18
2022-09-21T22:44:11.615Z,8.45
2022-09-21T22:46:39.058Z,8.52
2022-09-21T22:49:06.687Z,7.57
2022-09-21T22:51:35.570Z,10.63
2022-09-21T22:54:02.809Z,10.05
2022-09-21T22:56:33.646Z,10.02
2022-09-21T22:59:04.580Z,9.60
2022-09-21T23:01:37.761Z,9.57
2022-09-21T23:04:13.236Z,10.25
2022-09-21T23:06:45.301Z,10.35
2022-09-21T23:09:21.079Z,9.48
2022-09-21T23:11:54.341Z,11.20
2022-09-21T23:14:23.491Z,10.18
2022-09-21T23:16:50.945Z,9.55
2022-09-21T23:19:17.926Z,10.13
2022-09-21T23:21:49.914Z,10.05
2022-09-21T23:24:19.308Z,9.60
2022-09-21T23:26:47.973Z,11.23
2022-09-21T23:29:16.310Z,9.68
2022-09-21T23:31:45.758Z,9.50
2022-09-21T23:34:15.199Z,9.10
2022-09-21T23:36:45.167Z,9.57
2022-09-21T23:39:15.727Z,12.40
2022-09-21T23:41:43.943Z,8.38
2022-09-21T23:44:11.413Z,8.98
2022-09-21T23:46:40.426Z,10.07
2022-09-21T23:49:08.424Z,9.27
2022-09-21T23:51:36.584Z,13.32
2022-09-21T23:54:04.053Z,13.50
2022-09-21T23:56:31.876Z,11.35
2022-09-21T23:59:00.141Z,8.80
